createdAt,value
2018-03-19T00:00:52.278Z,-7.00
2018-03-19T00:03:20.565Z,-7.00
2018-03-19T00:05:48.057Z,-7.00
2018-03-19T00:08:15.579Z,-7.00
2018-03-19T00:10:43.053Z,-7.00
2018-03-19T00:13:10.526Z,-7.10
2018-03-19T00:15:38.010Z,-7.10
2018-03-19T00:18:05.530Z,-7.00
2018-03-19T00:20:33.018Z,-7.10
2018-03-19T00:23:00.513Z,-7.00
2018-03-19T00:25:28.773Z,-7.10
2018-03-19T00:27:56.251Z,-7.20
2018-03-19T00:30:24.513Z,-7.20
2018-03-19T00:32:52.010Z,-7.20
2018-03-19T00:35:19.490Z,-7.30
2018-03-19T00:37:46.994Z,-7.30
2018-03-19T00:40:15.238Z,-7.40
2018-03-19T00:42:42.723Z,-7.30
2018-03-19T00:45:11.007Z,-7.30
2018-03-19T00:47:39.250Z,-7.40
2018-03-19T00:50:06.734Z,-7.40
2018-03-19T00:52:34.993Z,-7.40
2018-03-19T00:55:02.478Z,-7.40
2018-03-19T00:57:30.738Z,-7.40
2018-03-19T00:59:58.988Z,-7.40
2018-03-19T01:02:26.485Z,-7.40
2018-03-19T01:04:54.755Z,-7.40
2018-03-19T01:07:23.006Z,-7.40
2018-03-19T01:09:50.509Z,-7.50
2018-03-19T01:12:17.994Z,-7.40
2018-03-19T01:14:45.488Z,-7.40
2018-03-19T01:17:12.991Z,-7.40
2018-03-19T01:19:40.470Z,-7.50
2018-03-19T01:22:07.962Z,-7.50
2018-03-19T01:24:35.441Z,-7.50
2018-03-19T01:27:02.922Z,-7.60
2018-03-19T01:29:30.441Z,-7.60
2018-03-19T01:31:58.688Z,-7.60
2018-03-19T01:34:26.192Z,-7.60
2018-03-19T01:36:53.714Z,-7.60
2018-03-19T01:39:21.193Z,-7.60
2018-03-19T01:41:49.438Z,-7.60
2018-03-19T01:44:16.946Z,-7.60
2018-03-19T01:46:44.435Z,-7.60
2018-03-19T01:49:12.689Z,-7.70
2018-03-19T01:51:40.210Z,-7.80
2018-03-19T01:54:08.462Z,-7.70
2018-03-19T01:56:35.949Z,-7.80
2018-03-19T01:59:04.223Z,-7.80
2018-03-19T02:01:32.466Z,-7.80
2018-03-19T02:04:00.001Z,-7.80
2018-03-19T02:06:27.507Z,-7.80
2018-03-19T02:08:54.994Z,-7.90
2018-03-19T02:11:22.482Z,-7.80
2018-03-19T02:13:50.020Z,-7.80
2018-03-19T02:16:17.503Z,-7.80
2018-03-19T02:18:44.992Z,-7.90
2018-03-19T02:21:12.490Z,-7.90
2018-03-19T02:23:39.973Z,-7.90
2018-03-19T02:26:07.454Z,-7.90
2018-03-19T02:28:34.950Z,-7.90
2018-03-19T02:31:02.426Z,-8.00
2018-03-19T02:33:29.910Z,-8.10
2018-03-19T02:35:57.415Z,-8.10
2018-03-19T02:38:25.657Z,-8.10
2018-03-19T02:40:53.135Z,-8.10
2018-03-19T02:43:21.403Z,-8.20
2018-03-19T02:45:49.662Z,-8.20
2018-03-19T02:48:17.150Z,-8.30
2018-03-19T02:50:45.431Z,-8.30
2018-03-19T02:53:13.690Z,-8.30
2018-03-19T02:55:41.938Z,-8.30
2018-03-19T02:58:09.453Z,-8.30
2018-03-19T03:00:36.938Z,-8.40
2018-03-19T03:03:04.439Z,-8.30
2018-03-19T03:05:32.729Z,-8.50
2018-03-19T03:08:00.978Z,-8.50
2018-03-19T03:10:28.455Z,-8.50
2018-03-19T03:12:56.723Z,-8.50
2018-03-19T03:15:24.212Z,-8.60
2018-03-19T03:17:51.690Z,-8.60
2018-03-19T03:20:19.194Z,-8.60
2018-03-19T03:22:47.447Z,-8.90
2018-03-19T03:25:14.942Z,-8.90
2018-03-19T03:27:43.191Z,-9.00
2018-03-19T03:30:10.675Z,-9.10
2018-03-19T03:32:38.946Z,-9.10
2018-03-19T03:35:07.197Z,-9.20
2018-03-19T03:37:34.674Z,-9.20
2018-03-19T03:40:02.942Z,-9.20
2018-03-19T03:42:31.202Z,-9.30
2018-03-19T03:44:58.694Z,-9.30
2018-03-19T03:47:26.961Z,-9.30
2018-03-19T03:49:55.205Z,-9.20
2018-03-19T03:52:23.544Z,-9.20
2018-03-19T03:54:51.022Z,-9.30
2018-03-19T03:57:18.505Z,-9.30
2018-03-19T03:59:46.022Z,-9.30
2018-03-19T04:02:13.497Z,-9.40
2018-03-19T04:04:40.970Z,-9.40
2018-03-19T04:07:08.465Z,-9.50
2018-03-19T04:09:36.702Z,-9.60
2018-03-19T04:12:04.186Z,-9.60
2018-03-19T04:14:32.454Z,-9.60
2018-03-19T04:16:59.933Z,-9.60
2018-03-19T04:19:28.181Z,-9.60
2018-03-19T04:21:55.673Z,-9.60
2018-03-19T04:24:23.153Z,-9.60
2018-03-19T04:26:50.629Z,-9.60
2018-03-19T04:29:18.135Z,-9.60
2018-03-19T04:31:46.382Z,-9.60
2018-03-19T04:34:13.858Z,-9.60
2018-03-19T04:36:42.121Z,-9.70
2018-03-19T04:39:09.614Z,-9.70
2018-03-19T04:41:37.098Z,-9.70
2018-03-19T04:44:04.614Z,-9.70
2018-03-19T04:46:32.868Z,-9.90
2018-03-19T04:49:00.349Z,-9.90
2018-03-19T04:51:28.625Z,-9.90
2018-03-19T04:53:56.880Z,-9.90
2018-03-19T04:56:24.378Z,-9.90
2018-03-19T04:58:51.890Z,-9.90
2018-03-19T05:01:19.369Z,-9.90
2018-03-19T05:03:47.617Z,-9.90
2018-03-19T05:06:15.123Z,-9.90
2018-03-19T05:08:42.602Z,-9.90
2018-03-19T05:11:10.125Z,-9.90
2018-03-19T05:13:37.618Z,-10.00
2018-03-19T05:16:05.106Z,-10.00
2018-03-19T05:18:32.594Z,-10.00
2018-03-19T05:21:00.106Z,-10.10
2018-03-19T05:23:27.591Z,-10.10
2018-03-19T05:25:55.841Z,-10.00
2018-03-19T05:28:23.355Z,-10.00
2018-03-19T05:30:50.854Z,-9.90
2018-03-19T05:33:18.351Z,-9.80
2018-03-19T05:35:46.622Z,-9.80
2018-03-19T05:38:14.866Z,-9.80
2018-03-19T05:40:42.346Z,-9.80
2018-03-19T05:43:10.622Z,-9.50
2018-03-19T05:45:38.874Z,-9.50
2018-03-19T05:48:06.354Z,-9.50
2018-03-19T05:50:34.629Z,-9.30
2018-03-19T05:53:02.877Z,-9.20
2018-03-19T05:55:30.358Z,-9.20
2018-03-19T05:57:57.857Z,-9.10
2018-03-19T06:00:25.344Z,-9.00
2018-03-19T06:02:52.847Z,-8.90
2018-03-19T06:05:20.448Z,-8.90
2018-03-19T06:07:48.080Z,-8.80
2018-03-19T06:10:16.040Z,-8.70
2018-03-19T06:12:44.052Z,-8.60
2018-03-19T06:15:11.545Z,-8.30
2018-03-19T06:17:39.387Z,-6.60
2018-03-19T06:20:06.874Z,-4.70
2018-03-19T06:22:35.130Z,-2.60
2018-03-19T06:25:02.645Z,-2.60
2018-03-19T06:27:30.132Z,-2.20
2018-03-19T06:29:57.638Z,-2.20
2018-03-19T06:32:25.138Z,-1.70
2018-03-19T06:34:52.622Z,-1.30
2018-03-19T06:37:20.156Z,-0.70
2018-03-19T06:39:47.635Z,0.00
2018-03-19T06:42:15.114Z,0.20
2018-03-19T06:44:43.381Z,-0.50
2018-03-19T06:47:10.901Z,-0.50
2018-03-19T06:49:38.535Z,-0.70
2018-03-19T06:52:06.054Z,-0.50
2018-03-19T06:54:33.535Z,-0.30
2018-03-19T06:57:01.774Z,1.40
2018-03-19T06:59:29.265Z,1.40
2018-03-19T07:01:57.516Z,1.70
2018-03-19T07:04:25.015Z,1.70
2018-03-19T07:06:52.522Z,1.90
2018-03-19T07:09:20.001Z,2.70
2018-03-19T07:11:48.247Z,2.80
2018-03-19T07:14:15.743Z,2.70
2018-03-19T07:16:43.984Z,2.90
2018-03-19T07:19:11.556Z,2.80
2018-03-19T07:21:39.070Z,3.70
2018-03-19T07:24:06.612Z,2.80
2018-03-19T07:26:34.098Z,2.50
2018-03-19T07:29:01.617Z,2.60
2018-03-19T07:31:29.114Z,3.40
2018-03-19T07:33:56.630Z,4.10
2018-03-19T07:36:26.026Z,4.40
2018-03-19T07:38:54.297Z,4.60
2018-03-19T07:41:22.598Z,4.20
2018-03-19T07:43:50.095Z,4.20
2018-03-19T07:46:17.602Z,4.30
2018-03-19T07:48:45.115Z,4.00
2018-03-19T07:51:12.622Z,4.10
2018-03-19T07:53:40.136Z,5.00
2018-03-19T07:56:07.643Z,4.60
2018-03-19T07:58:35.174Z,5.00
2018-03-19T08:01:03.466Z,4.30
2018-03-19T08:03:30.990Z,4.30
2018-03-19T08:05:58.524Z,4.00
2018-03-19T08:08:26.090Z,5.20
2018-03-19T08:10:53.597Z,5.10
2018-03-19T08:13:21.852Z,5.80
2018-03-19T08:15:49.370Z,5.80
2018-03-19T08:18:16.890Z,6.50
2018-03-19T08:20:44.415Z,5.40
2018-03-19T08:23:12.166Z,3.60
2018-03-19T08:25:39.678Z,3.50
2018-03-19T08:28:07.188Z,2.50
2018-03-19T08:30:34.765Z,2.50
2018-03-19T08:33:02.222Z,2.80
2018-03-19T08:35:29.712Z,1.40
2018-03-19T08:37:57.264Z,-0.70
2018-03-19T08:40:24.769Z,-2.60
2018-03-19T08:42:52.543Z,-3.30
2018-03-19T08:45:20.088Z,-3.70
2018-03-19T08:47:47.659Z,-3.80
2018-03-19T08:50:15.132Z,-3.80
2018-03-19T08:52:42.680Z,-3.80
2018-03-19T08:55:10.187Z,-3.80
2018-03-19T08:57:37.690Z,-4.00
2018-03-19T09:00:05.211Z,-4.10
2018-03-19T09:02:33.549Z,-4.20
2018-03-19T09:05:01.807Z,-4.60
2018-03-19T09:07:29.339Z,-4.60
2018-03-19T09:09:56.865Z,-4.60
2018-03-19T09:12:24.398Z,-4.80
2018-03-19T09:14:52.685Z,-4.70
2018-03-19T09:17:20.199Z,-4.70
2018-03-19T09:19:47.821Z,-4.60
2018-03-19T09:22:15.334Z,-4.40
2018-03-19T09:24:42.846Z,-4.50
2018-03-19T09:27:10.395Z,-4.30
2018-03-19T09:29:37.907Z,-4.20
2018-03-19T09:32:05.427Z,-4.30
2018-03-19T09:34:32.943Z,-4.30
2018-03-19T09:37:01.214Z,-4.60
2018-03-19T09:39:28.724Z,-4.70
2018-03-19T09:41:56.250Z,-4.60
2018-03-19T09:44:23.763Z,-4.70
2018-03-19T09:46:51.269Z,-4.70
2018-03-19T09:49:18.778Z,-4.70
2018-03-19T09:51:46.275Z,-4.60
2018-03-19T09:54:14.527Z,-4.50
2018-03-19T09:56:42.067Z,-4.50
2018-03-19T09:59:09.560Z,-4.50
2018-03-19T10:01:37.838Z,-4.70
2018-03-19T10:04:06.118Z,-4.60
2018-03-19T10:06:34.407Z,-4.50
2018-03-19T10:09:01.940Z,-4.50
2018-03-19T10:11:30.188Z,-4.50
2018-03-19T10:13:57.698Z,-4.50
2018-03-19T10:16:25.206Z,-4.50
2018-03-19T10:18:52.715Z,-4.30
2018-03-19T10:21:20.227Z,-4.50
2018-03-19T10:23:47.753Z,-4.60
2018-03-19T10:26:15.262Z,-4.70
2018-03-19T10:28:45.455Z,-4.50
2018-03-19T10:31:12.965Z,-4.50
2018-03-19T10:33:40.494Z,-4.30
2018-03-19T10:36:08.002Z,-4.30
2018-03-19T10:38:35.555Z,-4.40
2018-03-19T10:41:03.060Z,-4.60
2018-03-19T10:43:31.332Z,-4.50
2018-03-19T10:45:58.863Z,-4.60
2018-03-19T10:48:26.390Z,-4.30
2018-03-19T10:50:54.050Z,-4.10
2018-03-19T10:53:21.572Z,-4.20
2018-03-19T10:55:49.083Z,-4.10
2018-03-19T10:58:16.598Z,-4.10
2018-03-19T11:00:44.885Z,-4.30
2018-03-19T11:03:18.912Z,-4.30
2018-03-19T11:05:50.228Z,-4.30
2018-03-19T11:08:24.122Z,-4.40
2018-03-19T11:10:51.651Z,-4.40
2018-03-19T11:13:19.155Z,-4.20
2018-03-19T11:15:47.426Z,-4.20
2018-03-19T11:18:14.946Z,-4.20
2018-03-19T11:20:42.445Z,-4.20
2018-03-19T11:23:10.721Z,-3.90
2018-03-19T11:25:39.028Z,-4.00
2018-03-19T11:28:06.533Z,-4.00
2018-03-19T11:30:34.033Z,-4.00
2018-03-19T11:33:01.625Z,-4.00
2018-03-19T11:35:29.837Z,-4.00
2018-03-19T11:37:57.356Z,-4.00
2018-03-19T11:40:24.870Z,-4.10
2018-03-19T11:42:53.151Z,-3.90
2018-03-19T11:45:21.422Z,-3.80
2018-03-19T11:47:48.951Z,-3.80
2018-03-19T11:50:16.438Z,-3.70
2018-03-19T11:52:44.710Z,-3.80
2018-03-19T11:55:12.998Z,-3.90
2018-03-19T11:57:41.250Z,-4.00
2018-03-19T12:00:08.757Z,-4.00
2018-03-19T12:02:36.271Z,-3.90
2018-03-19T12:05:04.540Z,-4.00
2018-03-19T12:07:32.080Z,-4.00
2018-03-19T12:09:59.583Z,-3.90
2018-03-19T12:12:27.075Z,-3.80
2018-03-19T12:14:54.616Z,-3.70
2018-03-19T12:17:22.124Z,-3.70
2018-03-19T12:19:49.649Z,-3.80
2018-03-19T12:22:17.165Z,-3.60
2018-03-19T12:24:45.483Z,-3.50
2018-03-19T12:27:12.961Z,-3.50
2018-03-19T12:29:40.479Z,-3.60
2018-03-19T12:32:07.970Z,-3.50
2018-03-19T12:34:35.467Z,-3.60
2018-03-19T12:37:03.783Z,-3.50
2018-03-19T12:39:31.275Z,-3.50
2018-03-19T12:41:58.786Z,-3.40
2018-03-19T12:44:26.276Z,-3.20
2018-03-19T12:46:53.774Z,-3.40
2018-03-19T12:49:22.066Z,-3.30
2018-03-19T12:51:49.566Z,-3.40
2018-03-19T12:54:17.066Z,-3.30
2018-03-19T12:56:45.355Z,-3.30
2018-03-19T12:59:12.842Z,-3.40
2018-03-19T13:01:40.360Z,-3.20
2018-03-19T13:04:08.618Z,-3.30
2018-03-19T13:06:36.134Z,-3.30
2018-03-19T13:09:03.666Z,-3.10
2018-03-19T13:11:31.175Z,-3.10
2018-03-19T13:13:58.682Z,-3.00
2018-03-19T13:16:26.190Z,-3.00
2018-03-19T13:18:53.700Z,-3.10
2018-03-19T13:21:21.185Z,-3.20
2018-03-19T13:23:48.682Z,-3.10
2018-03-19T13:26:16.191Z,-3.00
2018-03-19T13:28:43.686Z,-2.90
2018-03-19T13:31:11.206Z,-2.90
2018-03-19T13:33:38.710Z,-3.00
2018-03-19T13:36:06.298Z,-3.00
2018-03-19T13:38:33.798Z,-3.20
2018-03-19T13:41:04.027Z,-3.30
2018-03-19T13:43:32.511Z,-3.30
2018-03-19T13:46:00.032Z,-3.20
2018-03-19T13:48:27.576Z,-3.10
2018-03-19T13:50:55.090Z,-3.00
2018-03-19T13:53:22.605Z,-3.00
2018-03-19T13:55:50.131Z,-2.90
2018-03-19T13:58:20.341Z,-3.10
2018-03-19T14:00:47.874Z,-3.10
2018-03-19T14:03:15.393Z,-3.20
2018-03-19T14:05:42.892Z,-3.10
2018-03-19T14:08:10.393Z,-3.00
2018-03-19T14:10:37.928Z,-3.10
2018-03-19T14:13:05.426Z,-3.10
2018-03-19T14:15:32.959Z,-3.00
2018-03-19T14:18:01.260Z,-3.00
2018-03-19T14:20:28.769Z,-3.00
2018-03-19T14:22:56.313Z,-3.00
2018-03-19T14:25:23.822Z,-3.00
2018-03-19T14:27:52.192Z,-3.00
2018-03-19T14:30:20.633Z,-3.00
2018-03-19T14:32:48.134Z,-3.00
2018-03-19T14:35:15.660Z,-3.00
2018-03-19T14:37:43.186Z,-3.10
2018-03-19T14:40:10.699Z,-3.20
2018-03-19T14:42:38.952Z,-3.20
2018-03-19T14:45:06.466Z,-3.20
2018-03-19T14:47:35.909Z,-3.20
2018-03-19T14:50:03.438Z,-3.20
2018-03-19T14:52:30.966Z,-3.10
2018-03-19T14:54:58.514Z,-3.20
2018-03-19T14:57:26.051Z,-3.10
2018-03-19T14:59:53.560Z,-3.10
2018-03-19T15:02:21.087Z,-3.00
2018-03-19T15:04:49.375Z,-3.10
2018-03-19T15:07:16.888Z,-3.10
2018-03-19T15:09:44.386Z,-3.00
2018-03-19T15:12:12.687Z,-2.90
2018-03-19T15:14:40.199Z,-2.90
2018-03-19T15:17:08.482Z,-2.90
2018-03-19T15:19:36.810Z,-2.80
2018-03-19T15:22:04.295Z,-2.80
2018-03-19T15:24:31.830Z,-2.90
2018-03-19T15:26:59.324Z,-2.90
2018-03-19T15:29:26.826Z,-2.90
2018-03-19T15:31:54.350Z,-2.90
2018-03-19T15:34:22.649Z,-2.80
2018-03-19T15:36:50.159Z,-2.80
2018-03-19T15:39:17.690Z,-2.70
2018-03-19T15:41:46.218Z,-2.70
2018-03-19T15:44:13.750Z,-2.60
2018-03-19T15:46:41.279Z,-2.70
2018-03-19T15:49:08.776Z,-2.70
2018-03-19T15:51:36.277Z,-2.70
2018-03-19T15:54:03.791Z,-2.70
2018-03-19T15:56:31.295Z,-2.70
2018-03-19T15:58:58.841Z,-2.70
2018-03-19T16:01:27.131Z,-2.80
2018-03-19T16:03:54.645Z,-2.70
2018-03-19T16:06:22.157Z,-2.80
2018-03-19T16:08:49.687Z,-2.80
2018-03-19T16:11:17.951Z,-2.90
2018-03-19T16:13:47.086Z,-3.00
2018-03-19T16:16:14.630Z,-3.00
2018-03-19T16:18:42.134Z,-3.00
2018-03-19T16:21:09.654Z,-3.10
2018-03-19T16:23:37.163Z,-3.10
2018-03-19T16:26:04.686Z,-3.10
2018-03-19T16:28:32.240Z,-3.10
2018-03-19T16:30:59.750Z,-3.20
2018-03-19T16:33:27.333Z,-3.20
2018-03-19T16:35:54.958Z,-3.20
2018-03-19T16:38:22.553Z,-3.20
2018-03-19T16:40:50.122Z,-3.30
2018-03-19T16:43:17.656Z,-3.30
2018-03-19T16:45:46.006Z,-3.30
2018-03-19T16:48:13.560Z,-3.40
2018-03-19T16:50:41.101Z,-3.40
2018-03-19T16:53:08.617Z,-3.40
2018-03-19T16:55:36.142Z,-3.40
2018-03-19T16:58:03.711Z,-3.50
2018-03-19T17:00:31.240Z,-3.50
2018-03-19T17:02:58.793Z,-3.60
2018-03-19T17:05:26.345Z,-3.70
2018-03-19T17:07:53.854Z,-3.70
2018-03-19T17:10:22.133Z,-3.80
2018-03-19T17:12:49.632Z,-3.90
2018-03-19T17:15:17.178Z,-3.90
2018-03-19T17:17:44.686Z,-4.00
2018-03-19T17:20:12.230Z,-4.00
2018-03-19T17:22:39.722Z,-4.00
2018-03-19T17:25:08.042Z,-4.10
2018-03-19T17:27:35.562Z,-4.20
2018-03-19T17:30:03.855Z,-4.20
2018-03-19T17:32:31.420Z,-4.20
2018-03-19T17:34:58.945Z,-4.30
2018-03-19T17:37:26.439Z,-4.40
2018-03-19T17:39:53.990Z,-4.40
2018-03-19T17:42:21.536Z,-4.40
2018-03-19T17:44:49.106Z,-4.50
2018-03-19T17:47:16.657Z,-4.50
2018-03-19T17:49:44.188Z,-4.50
2018-03-19T17:52:11.728Z,-4.50
2018-03-19T17:54:39.392Z,-4.50
2018-03-19T17:57:06.940Z,-4.50
2018-03-19T17:59:34.481Z,-4.50
2018-03-19T18:02:02.005Z,-4.60
2018-03-19T18:04:29.540Z,-4.60
2018-03-19T18:06:57.094Z,-4.60
2018-03-19T18:09:24.594Z,-4.60
2018-03-19T18:11:52.252Z,-4.70
2018-03-19T18:14:19.777Z,-4.70
2018-03-19T18:16:48.349Z,-4.70
2018-03-19T18:19:15.862Z,-4.80
2018-03-19T18:21:43.388Z,-4.80
2018-03-19T18:24:10.926Z,-4.90
2018-03-19T18:26:39.346Z,-4.90
2018-03-19T18:29:07.649Z,-4.90
2018-03-19T18:31:35.140Z,-4.90
2018-03-19T18:34:02.650Z,-4.90
2018-03-19T18:36:30.200Z,-5.00
2018-03-19T18:38:57.720Z,-5.10
2018-03-19T18:41:25.230Z,-5.10
2018-03-19T18:43:52.766Z,-5.10
2018-03-19T18:46:21.052Z,-5.10
2018-03-19T18:48:48.583Z,-5.10
2018-03-19T18:51:16.114Z,-5.10
2018-03-19T18:53:43.614Z,-5.20
2018-03-19T18:56:11.153Z,-5.10
2018-03-19T18:58:38.655Z,-5.10
2018-03-19T19:01:06.179Z,-5.10
2018-03-19T19:03:35.500Z,-5.10
2018-03-19T19:06:03.002Z,-5.10
2018-03-19T19:08:30.524Z,-5.00
2018-03-19T19:10:58.053Z,-5.10
2018-03-19T19:13:26.335Z,-5.10
2018-03-19T19:15:54.587Z,-5.10
2018-03-19T19:18:22.115Z,-5.10
2018-03-19T19:20:49.639Z,-5.10
2018-03-19T19:23:17.919Z,-5.20
2018-03-19T19:25:45.466Z,-5.20
2018-03-19T19:28:12.988Z,-5.20
2018-03-19T19:30:41.318Z,-5.30
2018-03-19T19:33:08.880Z,-5.30
2018-03-19T19:35:36.400Z,-5.30
2018-03-19T19:38:04.681Z,-5.40
2018-03-19T19:40:33.008Z,-5.40
2018-03-19T19:43:00.543Z,-5.40
2018-03-19T19:45:28.090Z,-5.40
2018-03-19T19:47:55.620Z,-5.50
2018-03-19T19:50:23.170Z,-5.50
2018-03-19T19:52:50.735Z,-5.50
2018-03-19T19:55:19.240Z,-5.50
2018-03-19T19:57:48.398Z,-5.60
2018-03-19T20:00:16.270Z,-5.60
2018-03-19T20:02:43.807Z,-5.60
2018-03-19T20:05:11.334Z,-5.60
2018-03-19T20:07:38.894Z,-5.50
2018-03-19T20:10:06.432Z,-5.50
2018-03-19T20:12:34.753Z,-5.40
2018-03-19T20:15:02.314Z,-5.50
2018-03-19T20:17:29.843Z,-5.50
2018-03-19T20:19:58.171Z,-5.40
2018-03-19T20:22:25.720Z,-5.50
2018-03-19T20:24:53.254Z,-5.40
2018-03-19T20:27:20.809Z,-5.40
2018-03-19T20:29:48.325Z,-5.50
2018-03-19T20:32:15.848Z,-5.50
2018-03-19T20:34:44.310Z,-5.50
2018-03-19T20:37:11.834Z,-5.70
2018-03-19T20:39:40.128Z,-5.70
2018-03-19T20:42:07.679Z,-5.70
2018-03-19T20:44:35.191Z,-5.70
2018-03-19T20:47:02.720Z,-5.80
2018-03-19T20:49:30.263Z,-5.90
2018-03-19T20:51:57.807Z,-6.00
2018-03-19T20:54:26.080Z,-6.00
2018-03-19T20:56:54.392Z,-6.10
2018-03-19T20:59:21.929Z,-6.10
2018-03-19T21:01:49.431Z,-6.10
2018-03-19T21:04:16.995Z,-6.10
2018-03-19T21:06:44.519Z,-6.10
2018-03-19T21:09:12.043Z,-6.00
2018-03-19T21:11:40.383Z,-6.20
2018-03-19T21:14:07.902Z,-6.20
2018-03-19T21:16:35.424Z,-6.20
2018-03-19T21:19:02.960Z,-6.40
2018-03-19T21:21:31.259Z,-6.70
2018-03-19T21:23:58.793Z,-6.70
2018-03-19T21:26:26.326Z,-6.70
2018-03-19T21:28:53.819Z,-6.70
2018-03-19T21:31:21.354Z,-6.70
2018-03-19T21:33:48.846Z,-6.70
2018-03-19T21:36:16.335Z,-6.80
2018-03-19T21:38:43.874Z,-6.80
2018-03-19T21:41:12.152Z,-6.80
2018-03-19T21:43:40.442Z,-6.90
2018-03-19T21:46:08.714Z,-6.80
2018-03-19T21:48:37.024Z,-6.80
2018-03-19T21:51:04.538Z,-6.80
2018-03-19T21:53:32.877Z,-6.90
2018-03-19T21:56:00.366Z,-6.90
2018-03-19T21:58:28.649Z,-7.00
2018-03-19T22:00:56.959Z,-7.00
2018-03-19T22:03:24.443Z,-7.10
2018-03-19T22:05:51.954Z,-7.20
2018-03-19T22:08:19.458Z,-7.30
2018-03-19T22:10:46.958Z,-7.30
2018-03-19T22:13:15.238Z,-7.40
2018-03-19T22:15:43.520Z,-7.50
2018-03-19T22:18:11.776Z,-7.50
2018-03-19T22:20:39.288Z,-7.60
2018-03-19T22:23:06.778Z,-7.60
2018-03-19T22:25:34.261Z,-7.60
2018-03-19T22:28:02.538Z,-7.60
2018-03-19T22:30:30.817Z,-7.70
2018-03-19T22:32:59.079Z,-7.80
2018-03-19T22:35:27.423Z,-7.90
2018-03-19T22:37:54.912Z,-7.90
2018-03-19T22:40:23.171Z,-7.90
2018-03-19T22:42:50.681Z,-7.90
2018-03-19T22:45:18.201Z,-7.90
2018-03-19T22:47:45.699Z,-7.90
2018-03-19T22:50:13.210Z,-7.90
2018-03-19T22:52:40.766Z,-7.90
2018-03-19T22:55:08.223Z,-7.90
2018-03-19T22:57:35.758Z,-8.00
2018-03-19T23:00:03.285Z,-8.00
2018-03-19T23:02:30.833Z,-8.00
2018-03-19T23:08:01.487Z,-8.30
2018-03-19T23:10:28.974Z,-8.40
2018-03-19T23:12:56.455Z,-8.40
2018-03-19T23:15:23.967Z,-8.50
2018-03-19T23:17:51.462Z,-8.50
2018-03-19T23:20:18.942Z,-8.50
2018-03-19T23:22:46.455Z,-8.50
2018-03-19T23:25:13.943Z,-8.40
2018-03-19T23:27:41.443Z,-8.40
2018-03-19T23:30:08.970Z,-8.40
2018-03-19T23:32:36.454Z,-8.50
2018-03-19T23:35:04.698Z,-8.60
2018-03-19T23:37:32.198Z,-8.60
2018-03-19T23:39:59.682Z,-8.70
2018-03-19T23:42:27.167Z,-8.80
2018-03-19T23:44:54.686Z,-8.80
2018-03-19T23:47:22.190Z,-8.90
2018-03-19T23:49:49.688Z,-8.90
2018-03-19T23:52:18.120Z,-9.00
2018-03-19T23:54:45.618Z,-9.00
2018-03-19T23:57:13.110Z,-9.10
2018-03-19T23:59:40.640Z,-9.10
